sensor_id;sensor_type;location;lat;lon;timestamp;P1;durP1;ratioP1;P2;durP2;ratioP2
15110;SDS011;7656;51.954;7.998;2022-07-23T00:03:50;6.83;;;4.00;;
15110;SDS011;7656;51.954;7.998;2022-07-23T00:07:52;4.70;;;3.87;;
15110;SDS011;7656;51.954;7.998;2022-07-23T00:11:53;7.77;;;4.23;;
15110;SDS011;7656;51.954;7.998;2022-07-23T00:15:54;5.83;;;4.27;;
15110;SDS011;7656;51.954;7.998;2022-07-23T00:19:55;6.20;;;3.93;;
15110;SDS011;7656;51.954;7.998;2022-07-23T00:23:56;7.73;;;4.53;;
15110;SDS011;7656;51.954;7.998;2022-07-23T00:27:57;4.80;;;4.40;;
15110;SDS011;7656;51.954;7.998;2022-07-23T00:31:59;8.17;;;4.60;;
15110;SDS011;7656;51.954;7.998;2022-07-23T00:36:00;7.07;;;4.50;;
15110;SDS011;7656;51.954;7.998;2022-07-23T00:40:01;4.90;;;4.40;;
15110;SDS011;7656;51.954;7.998;2022-07-23T00:44:19;5.33;;;4.70;;
15110;SDS011;7656;51.954;7.998;2022-07-23T00:48:26;5.13;;;4.33;;
15110;SDS011;7656;51.954;7.998;2022-07-23T00:52:27;5.37;;;4.87;;
15110;SDS011;7656;51.954;7.998;2022-07-23T00:56:29;7.90;;;4.80;;
15110;SDS011;7656;51.954;7.998;2022-07-23T01:00:30;5.37;;;4.73;;
15110;SDS011;7656;51.954;7.998;2022-07-23T01:04:31;7.70;;;4.70;;
15110;SDS011;7656;51.954;7.998;2022-07-23T01:08:33;9.10;;;5.13;;
15110;SDS011;7656;51.954;7.998;2022-07-23T01:12:33;6.03;;;4.83;;
15110;SDS011;7656;51.954;7.998;2022-07-23T01:16:35;5.83;;;5.13;;
15110;SDS011;7656;51.954;7.998;2022-07-23T01:20:36;7.63;;;4.93;;
15110;SDS011;7656;51.954;7.998;2022-07-23T01:24:37;8.07;;;5.00;;
15110;SDS011;7656;51.954;7.998;2022-07-23T01:28:40;8.30;;;5.10;;
15110;SDS011;7656;51.954;7.998;2022-07-23T01:32:41;6.23;;;4.60;;
15110;SDS011;7656;51.954;7.998;2022-07-23T01:36:42;8.77;;;5.37;;
15110;SDS011;7656;51.954;7.998;2022-07-23T01:40:44;5.47;;;4.90;;
15110;SDS011;7656;51.954;7.998;2022-07-23T01:44:45;6.13;;;4.80;;
15110;SDS011;7656;51.954;7.998;2022-07-23T01:48:52;7.73;;;5.03;;
15110;SDS011;7656;51.954;7.998;2022-07-23T01:53:14;7.63;;;4.93;;
15110;SDS011;7656;51.954;7.998;2022-07-23T01:57:15;5.47;;;4.87;;
15110;SDS011;7656;51.954;7.998;2022-07-23T02:01:17;7.13;;;5.00;;
15110;SDS011;7656;51.954;7.998;2022-07-23T02:05:18;8.23;;;5.13;;
15110;SDS011;7656;51.954;7.998;2022-07-23T02:09:20;6.93;;;5.07;;
15110;SDS011;7656;51.954;7.998;2022-07-23T02:13:21;7.80;;;5.40;;
15110;SDS011;7656;51.954;7.998;2022-07-23T02:17:22;8.27;;;5.57;;
15110;SDS011;7656;51.954;7.998;2022-07-23T02:21:23;5.83;;;5.17;;
15110;SDS011;7656;51.954;7.998;2022-07-23T02:25:24;7.37;;;5.70;;
15110;SDS011;7656;51.954;7.998;2022-07-23T02:29:30;6.30;;;5.07;;
15110;SDS011;7656;51.954;7.998;2022-07-23T02:33:31;7.83;;;4.97;;
15110;SDS011;7656;51.954;7.998;2022-07-23T02:37:33;5.63;;;4.80;;
15110;SDS011;7656;51.954;7.998;2022-07-23T02:41:34;7.53;;;5.17;;
15110;SDS011;7656;51.954;7.998;2022-07-23T02:45:35;5.33;;;4.80;;
15110;SDS011;7656;51.954;7.998;2022-07-23T02:49:36;5.23;;;4.73;;
15110;SDS011;7656;51.954;7.998;2022-07-23T02:53:39;7.37;;;5.23;;
15110;SDS011;7656;51.954;7.998;2022-07-23T02:57:40;5.27;;;4.77;;
15110;SDS011;7656;51.954;7.998;2022-07-23T03:01:41;5.77;;;5.10;;
15110;SDS011;7656;51.954;7.998;2022-07-23T03:05:42;8.03;;;5.13;;
15110;SDS011;7656;51.954;7.998;2022-07-23T03:09:43;6.67;;;5.20;;
15110;SDS011;7656;51.954;7.998;2022-07-23T03:13:44;7.80;;;5.57;;
15110;SDS011;7656;51.954;7.998;2022-07-23T03:17:45;6.63;;;5.40;;
15110;SDS011;7656;51.954;7.998;2022-07-23T03:21:47;6.97;;;5.37;;
15110;SDS011;7656;51.954;7.998;2022-07-23T03:25:48;5.77;;;4.97;;
15110;SDS011;7656;51.954;7.998;2022-07-23T03:29:50;8.37;;;5.47;;
15110;SDS011;7656;51.954;7.998;2022-07-23T03:33:52;7.43;;;5.30;;
15110;SDS011;7656;51.954;7.998;2022-07-23T03:37:53;6.13;;;5.53;;
15110;SDS011;7656;51.954;7.998;2022-07-23T03:41:54;6.43;;;5.80;;
15110;SDS011;7656;51.954;7.998;2022-07-23T03:45:56;6.67;;;5.30;;
15110;SDS011;7656;51.954;7.998;2022-07-23T03:49:57;7.50;;;5.60;;
15110;SDS011;7656;51.954;7.998;2022-07-23T03:53:58;6.77;;;5.40;;
15110;SDS011;7656;51.954;7.998;2022-07-23T03:57:59;6.90;;;5.27;;
15110;SDS011;7656;51.954;7.998;2022-07-23T04:02:00;6.50;;;5.13;;
15110;SDS011;7656;51.954;7.998;2022-07-23T04:06:01;7.77;;;5.10;;
15110;SDS011;7656;51.954;7.998;2022-07-23T04:10:04;6.73;;;4.90;;
15110;SDS011;7656;51.954;7.998;2022-07-23T04:14:05;7.10;;;5.60;;
15110;SDS011;7656;51.954;7.998;2022-07-23T04:18:08;8.43;;;5.47;;
15110;SDS011;7656;51.954;7.998;2022-07-23T04:22:18;6.60;;;5.50;;
15110;SDS011;7656;51.954;7.998;2022-07-23T04:26:19;6.17;;;4.60;;
15110;SDS011;7656;51.954;7.998;2022-07-23T04:30:21;9.47;;;4.90;;
15110;SDS011;7656;51.954;7.998;2022-07-23T04:34:23;7.10;;;5.27;;
15110;SDS011;7656;51.954;7.998;2022-07-23T04:38:26;6.13;;;4.77;;
15110;SDS011;7656;51.954;7.998;2022-07-23T04:42:32;5.93;;;5.27;;
15110;SDS011;7656;51.954;7.998;2022-07-23T04:46:33;7.30;;;5.17;;
15110;SDS011;7656;51.954;7.998;2022-07-23T04:50:34;8.07;;;5.67;;
15110;SDS011;7656;51.954;7.998;2022-07-23T04:54:38;6.93;;;4.83;;
15110;SDS011;7656;51.954;7.998;2022-07-23T04:58:39;6.57;;;5.07;;
15110;SDS011;7656;51.954;7.998;2022-07-23T05:02:40;5.63;;;4.53;;
15110;SDS011;7656;51.954;7.998;2022-07-23T05:06:41;4.90;;;4.40;;
15110;SDS011;7656;51.954;7.998;2022-07-23T05:10:42;5.77;;;4.60;;
15110;SDS011;7656;51.954;7.998;2022-07-23T05:14:43;8.07;;;4.87;;
15110;SDS011;7656;51.954;7.998;2022-07-23T05:18:44;5.23;;;4.40;;
15110;SDS011;7656;51.954;7.998;2022-07-23T05:22:45;7.10;;;5.07;;
15110;SDS011;7656;51.954;7.998;2022-07-23T05:26:47;5.63;;;4.90;;
15110;SDS011;7656;51.954;7.998;2022-07-23T05:30:48;6.93;;;4.77;;
15110;SDS011;7656;51.954;7.998;2022-07-23T05:34:51;7.03;;;4.83;;
15110;SDS011;7656;51.954;7.998;2022-07-23T05:38:52;5.33;;;4.83;;
15110;SDS011;7656;51.954;7.998;2022-07-23T05:42:53;5.60;;;5.10;;
15110;SDS011;7656;51.954;7.998;2022-07-23T05:46:55;7.53;;;5.53;;
15110;SDS011;7656;51.954;7.998;2022-07-23T05:50:58;6.87;;;4.87;;
15110;SDS011;7656;51.954;7.998;2022-07-23T05:55:06;5.53;;;5.00;;
15110;SDS011;7656;51.954;7.998;2022-07-23T05:59:09;6.37;;;5.10;;
15110;SDS011;7656;51.954;7.998;2022-07-23T06:03:12;9.63;;;5.40;;
15110;SDS011;7656;51.954;7.998;2022-07-23T06:07:13;8.60;;;5.40;;
15110;SDS011;7656;51.954;7.998;2022-07-23T06:11:14;7.77;;;5.10;;
15110;SDS011;7656;51.954;7.998;2022-07-23T06:15:15;5.23;;;4.70;;
15110;SDS011;7656;51.954;7.998;2022-07-23T06:19:16;6.60;;;4.80;;
15110;SDS011;7656;51.954;7.998;2022-07-23T06:23:18;5.80;;;4.47;;
15110;SDS011;7656;51.954;7.998;2022-07-23T06:27:19;5.17;;;4.40;;
15110;SDS011;7656;51.954;7.998;2022-07-23T06:31:20;6.97;;;4.80;;
15110;SDS011;7656;51.954;7.998;2022-07-23T06:35:21;7.00;;;5.43;;
15110;SDS011;7656;51.954;7.998;2022-07-23T06:39:22;4.88;;;3.95;;
15110;SDS011;7656;51.954;7.998;2022-07-23T06:43:23;5.45;;;4.30;;
15110;SDS011;7656;51.954;7.998;2022-07-23T06:47:28;5.72;;;3.88;;
15110;SDS011;7656;51.954;7.998;2022-07-23T06:51:29;4.93;;;4.05;;
15110;SDS011;7656;51.954;7.998;2022-07-23T06:55:35;8.35;;;5.50;;
15110;SDS011;7656;51.954;7.998;2022-07-23T06:59:38;12.80;;;9.20;;
15110;SDS011;7656;51.954;7.998;2022-07-23T07:03:40;3.90;;;3.60;;
15110;SDS011;7656;51.954;7.998;2022-07-23T07:07:41;9.25;;;4.38;;
15110;SDS011;7656;51.954;7.998;2022-07-23T07:11:42;4.70;;;3.88;;
15110;SDS011;7656;51.954;7.998;2022-07-23T07:15:43;7.90;;;4.03;;
15110;SDS011;7656;51.954;7.998;2022-07-23T07:19:44;9.02;;;4.45;;
15110;SDS011;7656;51.954;7.998;2022-07-23T07:23:45;5.85;;;3.60;;
15110;SDS011;7656;51.954;7.998;2022-07-23T07:27:46;3.90;;;3.50;;
15110;SDS011;7656;51.954;7.998;2022-07-23T07:31:47;4.25;;;3.63;;
15110;SDS011;7656;51.954;7.998;2022-07-23T07:35:48;5.63;;;3.63;;
15110;SDS011;7656;51.954;7.998;2022-07-23T07:39:49;3.80;;;3.50;;
15110;SDS011;7656;51.954;7.998;2022-07-23T07:43:50;3.55;;;3.28;;
15110;SDS011;7656;51.954;7.998;2022-07-23T07:47:51;3.90;;;3.00;;
15110;SDS011;7656;51.954;7.998;2022-07-23T07:51:53;3.95;;;2.97;;
15110;SDS011;7656;51.954;7.998;2022-07-23T07:55:53;6.22;;;3.53;;
15110;SDS011;7656;51.954;7.998;2022-07-23T07:59:54;3.65;;;3.30;;
15110;SDS011;7656;51.954;7.998;2022-07-23T08:03:55;4.53;;;3.10;;
15110;SDS011;7656;51.954;7.998;2022-07-23T08:07:57;3.13;;;2.75;;
15110;SDS011;7656;51.954;7.998;2022-07-23T08:11:59;4.50;;;3.15;;
15110;SDS011;7656;51.954;7.998;2022-07-23T08:15:59;4.43;;;2.83;;
15110;SDS011;7656;51.954;7.998;2022-07-23T08:20:00;4.80;;;2.75;;
15110;SDS011;7656;51.954;7.998;2022-07-23T08:24:01;3.35;;;2.95;;
15110;SDS011;7656;51.954;7.998;2022-07-23T08:28:03;3.17;;;2.90;;
15110;SDS011;7656;51.954;7.998;2022-07-23T08:32:08;4.60;;;3.30;;
15110;SDS011;7656;51.954;7.998;2022-07-23T08:36:08;2.90;;;2.65;;
15110;SDS011;7656;51.954;7.998;2022-07-23T08:40:10;3.35;;;2.90;;
15110;SDS011;7656;51.954;7.998;2022-07-23T08:44:11;3.38;;;3.08;;
15110;SDS011;7656;51.954;7.998;2022-07-23T08:48:20;4.22;;;2.50;;
15110;SDS011;7656;51.954;7.998;2022-07-23T08:52:24;3.90;;;2.53;;
15110;SDS011;7656;51.954;7.998;2022-07-23T08:56:26;3.08;;;2.80;;
15110;SDS011;7656;51.954;7.998;2022-07-23T09:00:28;2.67;;;2.47;;
15110;SDS011;7656;51.954;7.998;2022-07-23T09:04:30;3.08;;;2.42;;
15110;SDS011;7656;51.954;7.998;2022-07-23T09:08:49;3.00;;;2.80;;
15110;SDS011;7656;51.954;7.998;2022-07-23T09:12:50;2.83;;;2.63;;
15110;SDS011;7656;51.954;7.998;2022-07-23T09:16:51;3.58;;;2.83;;
15110;SDS011;7656;51.954;7.998;2022-07-23T09:20:54;2.97;;;2.67;;
15110;SDS011;7656;51.954;7.998;2022-07-23T09:29:20;6.63;;;4.47;;
15110;SDS011;7656;51.954;7.998;2022-07-23T09:33:26;4.28;;;3.22;;
15110;SDS011;7656;51.954;7.998;2022-07-23T09:37:27;3.28;;;2.90;;
15110;SDS011;7656;51.954;7.998;2022-07-23T09:41:34;4.25;;;2.92;;
15110;SDS011;7656;51.954;7.998;2022-07-23T09:45:40;2.65;;;2.45;;
15110;SDS011;7656;51.954;7.998;2022-07-23T09:54:19;2.72;;;2.30;;
15110;SDS011;7656;51.954;7.998;2022-07-23T09:58:31;2.60;;;2.33;;
15110;SDS011;7656;51.954;7.998;2022-07-23T10:02:32;3.35;;;2.00;;
15110;SDS011;7656;51.954;7.998;2022-07-23T10:06:53;2.13;;;1.90;;
15110;SDS011;7656;51.954;7.998;2022-07-23T10:11:14;2.25;;;1.55;;
15110;SDS011;7656;51.954;7.998;2022-07-23T10:15:27;2.10;;;2.00;;
15110;SDS011;7656;51.954;7.998;2022-07-23T10:19:28;2.30;;;2.10;;
15110;SDS011;7656;51.954;7.998;2022-07-23T10:23:33;4.88;;;1.70;;
15110;SDS011;7656;51.954;7.998;2022-07-23T10:28:04;2.22;;;1.80;;
15110;SDS011;7656;51.954;7.998;2022-07-23T10:36:59;1.50;;;1.40;;
15110;SDS011;7656;51.954;7.998;2022-07-23T10:41:32;1.40;;;1.40;;
15110;SDS011;7656;51.954;7.998;2022-07-23T10:45:40;2.00;;;1.77;;
15110;SDS011;7656;51.954;7.998;2022-07-23T10:49:41;1.80;;;1.70;;
15110;SDS011;7656;51.954;7.998;2022-07-23T10:57:52;1.55;;;1.40;;
15110;SDS011;7656;51.954;7.998;2022-07-23T11:01:53;1.92;;;1.70;;
15110;SDS011;7656;51.954;7.998;2022-07-23T11:06:23;3.83;;;1.75;;
15110;SDS011;7656;51.954;7.998;2022-07-23T11:10:38;1.63;;;1.52;;
15110;SDS011;7656;51.954;7.998;2022-07-23T11:15:12;1.38;;;1.30;;
15110;SDS011;7656;51.954;7.998;2022-07-23T11:19:15;1.42;;;1.33;;
15110;SDS011;7656;51.954;7.998;2022-07-23T11:23:15;1.85;;;1.75;;
15110;SDS011;7656;51.954;7.998;2022-07-23T11:27:16;1.52;;;1.50;;
15110;SDS011;7656;51.954;7.998;2022-07-23T11:32:00;2.40;;;1.52;;
15110;SDS011;7656;51.954;7.998;2022-07-23T11:36:05;2.47;;;1.45;;
15110;SDS011;7656;51.954;7.998;2022-07-23T11:40:16;1.65;;;1.55;;
15110;SDS011;7656;51.954;7.998;2022-07-23T11:44:24;1.30;;;1.30;;
15110;SDS011;7656;51.954;7.998;2022-07-23T11:48:30;2.88;;;1.70;;
15110;SDS011;7656;51.954;7.998;2022-07-23T11:52:32;1.92;;;1.52;;
15110;SDS011;7656;51.954;7.998;2022-07-23T11:56:33;1.25;;;1.25;;
15110;SDS011;7656;51.954;7.998;2022-07-23T12:00:34;1.50;;;1.50;;
15110;SDS011;7656;51.954;7.998;2022-07-23T12:04:39;1.75;;;1.42;;
15110;SDS011;7656;51.954;7.998;2022-07-23T12:08:42;1.42;;;1.20;;
15110;SDS011;7656;51.954;7.998;2022-07-23T12:12:49;2.17;;;1.83;;
15110;SDS011;7656;51.954;7.998;2022-07-23T12:17:11;2.03;;;1.40;;
15110;SDS011;7656;51.954;7.998;2022-07-23T12:21:12;1.58;;;1.48;;
15110;SDS011;7656;51.954;7.998;2022-07-23T12:25:15;1.50;;;1.40;;
15110;SDS011;7656;51.954;7.998;2022-07-23T12:29:22;1.60;;;1.50;;
15110;SDS011;7656;51.954;7.998;2022-07-23T12:33:35;1.58;;;1.38;;
15110;SDS011;7656;51.954;7.998;2022-07-23T12:37:40;1.10;;;1.10;;
15110;SDS011;7656;51.954;7.998;2022-07-23T12:41:52;1.30;;;1.20;;
15110;SDS011;7656;51.954;7.998;2022-07-23T12:50:32;1.35;;;1.20;;
15110;SDS011;7656;51.954;7.998;2022-07-23T12:54:37;1.40;;;1.30;;
15110;SDS011;7656;51.954;7.998;2022-07-23T12:58:40;1.35;;;1.35;;
15110;SDS011;7656;51.954;7.998;2022-07-23T13:02:51;1.77;;;1.67;;
15110;SDS011;7656;51.954;7.998;2022-07-23T13:06:56;1.48;;;1.38;;
15110;SDS011;7656;51.954;7.998;2022-07-23T13:11:01;1.50;;;1.40;;
15110;SDS011;7656;51.954;7.998;2022-07-23T13:15:04;1.45;;;1.35;;
15110;SDS011;7656;51.954;7.998;2022-07-23T13:19:06;1.50;;;1.40;;
15110;SDS011;7656;51.954;7.998;2022-07-23T13:23:07;1.27;;;1.17;;
15110;SDS011;7656;51.954;7.998;2022-07-23T13:27:08;1.40;;;1.30;;
15110;SDS011;7656;51.954;7.998;2022-07-23T13:31:09;1.48;;;1.35;;
15110;SDS011;7656;51.954;7.998;2022-07-23T13:35:10;1.30;;;1.30;;
15110;SDS011;7656;51.954;7.998;2022-07-23T13:39:12;1.33;;;1.33;;
15110;SDS011;7656;51.954;7.998;2022-07-23T13:43:16;1.10;;;1.10;;
15110;SDS011;7656;51.954;7.998;2022-07-23T13:47:19;1.27;;;1.17;;
15110;SDS011;7656;51.954;7.998;2022-07-23T13:51:20;2.35;;;1.40;;
15110;SDS011;7656;51.954;7.998;2022-07-23T13:55:21;2.75;;;1.52;;
15110;SDS011;7656;51.954;7.998;2022-07-23T13:59:22;2.28;;;1.50;;
15110;SDS011;7656;51.954;7.998;2022-07-23T14:03:23;1.23;;;1.23;;
15110;SDS011;7656;51.954;7.998;2022-07-23T14:07:24;1.73;;;1.63;;
15110;SDS011;7656;51.954;7.998;2022-07-23T14:11:25;1.60;;;1.50;;
15110;SDS011;7656;51.954;7.998;2022-07-23T14:15:27;1.52;;;1.42;;
15110;SDS011;7656;51.954;7.998;2022-07-23T14:19:29;3.28;;;1.35;;
15110;SDS011;7656;51.954;7.998;2022-07-23T14:23:30;1.58;;;1.40;;
15110;SDS011;7656;51.954;7.998;2022-07-23T14:27:31;1.55;;;1.45;;
15110;SDS011;7656;51.954;7.998;2022-07-23T14:31:33;2.13;;;1.60;;
15110;SDS011;7656;51.954;7.998;2022-07-23T14:35:34;2.47;;;1.88;;
15110;SDS011;7656;51.954;7.998;2022-07-23T14:39:34;2.30;;;1.77;;
15110;SDS011;7656;51.954;7.998;2022-07-23T14:43:36;1.50;;;1.50;;
15110;SDS011;7656;51.954;7.998;2022-07-23T14:47:37;1.90;;;1.60;;
15110;SDS011;7656;51.954;7.998;2022-07-23T14:51:38;1.60;;;1.50;;
15110;SDS011;7656;51.954;7.998;2022-07-23T14:55:41;1.83;;;1.67;;
15110;SDS011;7656;51.954;7.998;2022-07-23T14:59:42;2.88;;;1.65;;
15110;SDS011;7656;51.954;7.998;2022-07-23T15:03:43;1.45;;;1.35;;
15110;SDS011;7656;51.954;7.998;2022-07-23T15:07:44;1.83;;;1.40;;
15110;SDS011;7656;51.954;7.998;2022-07-23T15:11:44;2.47;;;1.60;;
15110;SDS011;7656;51.954;7.998;2022-07-23T15:15:45;1.52;;;1.42;;
15110;SDS011;7656;51.954;7.998;2022-07-23T15:19:46;1.63;;;1.50;;
15110;SDS011;7656;51.954;7.998;2022-07-23T15:23:47;1.50;;;1.40;;
15110;SDS011;7656;51.954;7.998;2022-07-23T15:27:49;1.60;;;1.40;;
15110;SDS011;7656;51.954;7.998;2022-07-23T15:31:51;1.65;;;1.55;;
15110;SDS011;7656;51.954;7.998;2022-07-23T15:35:52;2.55;;;1.75;;
15110;SDS011;7656;51.954;7.998;2022-07-23T15:39:56;1.65;;;1.55;;
15110;SDS011;7656;51.954;7.998;2022-07-23T15:43:57;1.80;;;1.70;;
15110;SDS011;7656;51.954;7.998;2022-07-23T15:47:58;1.50;;;1.40;;
15110;SDS011;7656;51.954;7.998;2022-07-23T15:51:59;2.28;;;1.63;;
15110;SDS011;7656;51.954;7.998;2022-07-23T15:56:00;3.53;;;1.85;;
15110;SDS011;7656;51.954;7.998;2022-07-23T16:00:04;1.52;;;1.38;;
15110;SDS011;7656;51.954;7.998;2022-07-23T16:04:06;1.65;;;1.50;;
15110;SDS011;7656;51.954;7.998;2022-07-23T16:08:09;1.70;;;1.70;;
15110;SDS011;7656;51.954;7.998;2022-07-23T16:12:10;1.65;;;1.55;;
15110;SDS011;7656;51.954;7.998;2022-07-23T16:16:11;1.65;;;1.55;;
15110;SDS011;7656;51.954;7.998;2022-07-23T16:20:12;1.70;;;1.60;;
15110;SDS011;7656;51.954;7.998;2022-07-23T16:24:13;1.80;;;1.70;;
15110;SDS011;7656;51.954;7.998;2022-07-23T16:28:14;2.65;;;1.70;;
15110;SDS011;7656;51.954;7.998;2022-07-23T16:32:15;1.90;;;1.80;;
15110;SDS011;7656;51.954;7.998;2022-07-23T16:36:16;2.38;;;1.85;;
15110;SDS011;7656;51.954;7.998;2022-07-23T16:40:19;1.75;;;1.65;;
15110;SDS011;7656;51.954;7.998;2022-07-23T16:44:20;1.92;;;1.55;;
15110;SDS011;7656;51.954;7.998;2022-07-23T16:48:21;2.00;;;1.90;;
15110;SDS011;7656;51.954;7.998;2022-07-23T16:52:22;1.67;;;1.63;;
15110;SDS011;7656;51.954;7.998;2022-07-23T16:56:23;2.25;;;1.75;;
15110;SDS011;7656;51.954;7.998;2022-07-23T17:00:24;1.73;;;1.63;;
15110;SDS011;7656;51.954;7.998;2022-07-23T17:04:25;1.60;;;1.50;;
15110;SDS011;7656;51.954;7.998;2022-07-23T17:08:26;1.52;;;1.42;;
15110;SDS011;7656;51.954;7.998;2022-07-23T17:12:27;1.63;;;1.52;;
15110;SDS011;7656;51.954;7.998;2022-07-23T17:16:28;1.80;;;1.70;;
15110;SDS011;7656;51.954;7.998;2022-07-23T17:20:29;2.25;;;1.70;;
15110;SDS011;7656;51.954;7.998;2022-07-23T17:24:30;2.42;;;1.75;;
15110;SDS011;7656;51.954;7.998;2022-07-23T17:28:31;1.70;;;1.60;;
15110;SDS011;7656;51.954;7.998;2022-07-23T17:32:32;1.77;;;1.67;;
15110;SDS011;7656;51.954;7.998;2022-07-23T17:36:34;1.70;;;1.60;;
15110;SDS011;7656;51.954;7.998;2022-07-23T17:40:35;2.17;;;1.77;;
15110;SDS011;7656;51.954;7.998;2022-07-23T17:44:36;2.30;;;1.85;;
15110;SDS011;7656;51.954;7.998;2022-07-23T17:48:37;1.70;;;1.30;;
15110;SDS011;7656;51.954;7.998;2022-07-23T17:52:49;1.65;;;1.55;;
15110;SDS011;7656;51.954;7.998;2022-07-23T17:56:55;1.95;;;1.85;;
15110;SDS011;7656;51.954;7.998;2022-07-23T18:00:56;1.52;;;1.50;;
15110;SDS011;7656;51.954;7.998;2022-07-23T18:04:57;1.90;;;1.80;;
15110;SDS011;7656;51.954;7.998;2022-07-23T18:08:58;3.60;;;1.83;;
15110;SDS011;7656;51.954;7.998;2022-07-23T18:12:59;1.88;;;1.77;;
15110;SDS011;7656;51.954;7.998;2022-07-23T18:17:01;1.90;;;1.80;;
15110;SDS011;7656;51.954;7.998;2022-07-23T18:21:02;1.95;;;1.70;;
15110;SDS011;7656;51.954;7.998;2022-07-23T18:25:05;2.28;;;1.98;;
15110;SDS011;7656;51.954;7.998;2022-07-23T18:29:09;2.63;;;2.00;;
15110;SDS011;7656;51.954;7.998;2022-07-23T18:33:11;2.20;;;2.00;;
15110;SDS011;7656;51.954;7.998;2022-07-23T18:37:15;2.20;;;1.60;;
15110;SDS011;7656;51.954;7.998;2022-07-23T18:41:16;1.90;;;1.60;;
15110;SDS011;7656;51.954;7.998;2022-07-23T18:45:17;2.20;;;2.10;;
15110;SDS011;7656;51.954;7.998;2022-07-23T18:49:18;1.73;;;1.63;;
15110;SDS011;7656;51.954;7.998;2022-07-23T18:53:19;4.40;;;2.42;;
15110;SDS011;7656;51.954;7.998;2022-07-23T18:57:20;2.00;;;1.80;;
15110;SDS011;7656;51.954;7.998;2022-07-23T19:01:21;3.20;;;1.98;;
15110;SDS011;7656;51.954;7.998;2022-07-23T19:05:24;1.65;;;1.55;;
15110;SDS011;7656;51.954;7.998;2022-07-23T19:09:25;1.70;;;1.60;;
15110;SDS011;7656;51.954;7.998;2022-07-23T19:13:26;1.60;;;1.50;;
15110;SDS011;7656;51.954;7.998;2022-07-23T19:17:27;1.77;;;1.67;;
15110;SDS011;7656;51.954;7.998;2022-07-23T19:21:28;1.80;;;1.70;;
15110;SDS011;7656;51.954;7.998;2022-07-23T19:25:30;1.67;;;1.60;;
15110;SDS011;7656;51.954;7.998;2022-07-23T19:29:32;1.95;;;1.60;;
15110;SDS011;7656;51.954;7.998;2022-07-23T19:33:35;1.65;;;1.55;;
15110;SDS011;7656;51.954;7.998;2022-07-23T19:37:36;2.17;;;1.98;;
15110;SDS011;7656;51.954;7.998;2022-07-23T19:41:37;1.98;;;1.88;;
15110;SDS011;7656;51.954;7.998;2022-07-23T19:45:38;4.10;;;1.80;;
15110;SDS011;7656;51.954;7.998;2022-07-23T19:49:39;2.30;;;2.10;;
15110;SDS011;7656;51.954;7.998;2022-07-23T19:53:40;2.13;;;1.92;;
15110;SDS011;7656;51.954;7.998;2022-07-23T19:57:41;2.78;;;1.95;;
15110;SDS011;7656;51.954;7.998;2022-07-23T20:01:42;2.22;;;2.03;;
15110;SDS011;7656;51.954;7.998;2022-07-23T20:05:43;2.00;;;1.90;;
15110;SDS011;7656;51.954;7.998;2022-07-23T20:09:44;1.85;;;1.75;;
15110;SDS011;7656;51.954;7.998;2022-07-23T20:13:45;2.00;;;1.80;;
15110;SDS011;7656;51.954;7.998;2022-07-23T20:17:46;2.28;;;2.08;;
15110;SDS011;7656;51.954;7.998;2022-07-23T20:21:47;1.98;;;1.88;;
15110;SDS011;7656;51.954;7.998;2022-07-23T20:25:50;2.50;;;1.50;;
15110;SDS011;7656;51.954;7.998;2022-07-23T20:29:52;1.70;;;1.60;;
15110;SDS011;7656;51.954;7.998;2022-07-23T20:33:53;2.67;;;2.20;;
15110;SDS011;7656;51.954;7.998;2022-07-23T20:37:54;2.08;;;1.88;;
15110;SDS011;7656;51.954;7.998;2022-07-23T20:41:55;2.40;;;2.20;;
15110;SDS011;7656;51.954;7.998;2022-07-23T20:45:56;3.63;;;2.10;;
15110;SDS011;7656;51.954;7.998;2022-07-23T20:49:57;3.43;;;2.90;;
15110;SDS011;7656;51.954;7.998;2022-07-23T20:53:59;4.25;;;2.55;;
15110;SDS011;7656;51.954;7.998;2022-07-23T20:58:00;2.27;;;2.07;;
15110;SDS011;7656;51.954;7.998;2022-07-23T21:02:01;2.50;;;1.93;;
15110;SDS011;7656;51.954;7.998;2022-07-23T21:06:02;2.63;;;2.07;;
15110;SDS011;7656;51.954;7.998;2022-07-23T21:10:04;2.17;;;1.97;;
15110;SDS011;7656;51.954;7.998;2022-07-23T21:14:05;2.20;;;2.00;;
15110;SDS011;7656;51.954;7.998;2022-07-23T21:18:07;2.40;;;2.20;;
15110;SDS011;7656;51.954;7.998;2022-07-23T21:22:08;2.07;;;1.97;;
15110;SDS011;7656;51.954;7.998;2022-07-23T21:26:09;2.07;;;1.97;;
15110;SDS011;7656;51.954;7.998;2022-07-23T21:30:11;2.20;;;2.00;;
15110;SDS011;7656;51.954;7.998;2022-07-23T21:34:12;7.53;;;2.77;;
15110;SDS011;7656;51.954;7.998;2022-07-23T21:38:13;2.20;;;2.00;;
15110;SDS011;7656;51.954;7.998;2022-07-23T21:42:14;2.40;;;2.20;;
15110;SDS011;7656;51.954;7.998;2022-07-23T21:46:15;2.03;;;1.93;;
15110;SDS011;7656;51.954;7.998;2022-07-23T21:50:16;2.27;;;2.07;;
15110;SDS011;7656;51.954;7.998;2022-07-23T21:54:17;2.23;;;1.90;;
15110;SDS011;7656;51.954;7.998;2022-07-23T21:58:19;2.50;;;2.30;;
15110;SDS011;7656;51.954;7.998;2022-07-23T22:02:20;2.87;;;2.50;;
15110;SDS011;7656;51.954;7.998;2022-07-23T22:06:20;2.63;;;2.40;;
15110;SDS011;7656;51.954;7.998;2022-07-23T22:10:22;3.03;;;2.50;;
15110;SDS011;7656;51.954;7.998;2022-07-23T22:14:23;2.30;;;2.07;;
15110;SDS011;7656;51.954;7.998;2022-07-23T22:18:23;2.20;;;2.00;;
15110;SDS011;7656;51.954;7.998;2022-07-23T22:22:24;3.17;;;2.50;;
15110;SDS011;7656;51.954;7.998;2022-07-23T22:26:26;1.97;;;1.87;;
15110;SDS011;7656;51.954;7.998;2022-07-23T22:30:27;2.30;;;2.10;;
15110;SDS011;7656;51.954;7.998;2022-07-23T22:34:28;2.47;;;2.33;;
15110;SDS011;7656;51.954;7.998;2022-07-23T22:38:28;2.90;;;2.17;;
15110;SDS011;7656;51.954;7.998;2022-07-23T22:42:29;2.40;;;2.20;;
15110;SDS011;7656;51.954;7.998;2022-07-23T22:46:30;3.93;;;2.47;;
15110;SDS011;7656;51.954;7.998;2022-07-23T22:50:31;3.07;;;2.50;;
15110;SDS011;7656;51.954;7.998;2022-07-23T22:54:32;2.60;;;2.40;;
15110;SDS011;7656;51.954;7.998;2022-07-23T22:58:33;2.93;;;2.73;;
15110;SDS011;7656;51.954;7.998;2022-07-23T23:02:34;2.97;;;2.77;;
15110;SDS011;7656;51.954;7.998;2022-07-23T23:06:35;3.67;;;2.73;;
15110;SDS011;7656;51.954;7.998;2022-07-23T23:10:36;2.60;;;2.40;;
15110;SDS011;7656;51.954;7.998;2022-07-23T23:14:37;3.03;;;2.73;;
15110;SDS011;7656;51.954;7.998;2022-07-23T23:18:38;2.83;;;2.63;;
15110;SDS011;7656;51.954;7.998;2022-07-23T23:22:39;3.97;;;3.57;;
15110;SDS011;7656;51.954;7.998;2022-07-23T23:26:40;3.40;;;3.10;;
15110;SDS011;7656;51.954;7.998;2022-07-23T23:30:41;3.30;;;3.00;;
15110;SDS011;7656;51.954;7.998;2022-07-23T23:34:45;3.43;;;3.00;;
15110;SDS011;7656;51.954;7.998;2022-07-23T23:38:46;4.13;;;3.37;;
15110;SDS011;7656;51.954;7.998;2022-07-23T23:42:47;3.47;;;3.17;;
15110;SDS011;7656;51.954;7.998;2022-07-23T23:46:48;4.67;;;3.40;;
15110;SDS011;7656;51.954;7.998;2022-07-23T23:50:50;4.17;;;3.53;;
15110;SDS011;7656;51.954;7.998;2022-07-23T23:54:51;4.00;;;3.43;;
15110;SDS011;7656;51.954;7.998;2022-07-23T23:58:52;3.93;;;3.50;;
